Time;durP1;ratioP1;P1;durP2;ratioP2;P2;SDS_P1;SDS_P2;PMS_P1;PMS_P2;Temp;Humidity;BMP_temperature;BMP_pressure;BME280_temperature;BME280_humidity;BME280_pressure;Samples;Min_cycle;Max_cycle;Signal;HPM_P1;HPM_P2
2023/01/06 00:01:28;;;;;;;10.80;7.90;;;;;;;3.64;84.14;98105.80;103587;1307;22660;-86
2023/01/06 00:03:58;;;;;;;11.30;7.40;;;;;;;3.62;84.18;98108.16;104253;1307;22469;-88
2023/01/06 00:06:29;;;;;;;10.30;7.10;;;;;;;3.62;84.40;98112.75;104652;1309;22693;-85
2023/01/06 00:09:01;;;;;;;9.60;6.70;;;;;;;3.58;84.50;98110.02;104800;1299;26480;-85
2023/01/06 00:11:30;;;;;;;10.40;7.30;;;;;;;3.59;84.36;98114.63;105176;1304;22450;-85
2023/01/06 00:13:58;;;;;;;9.00;6.80;;;;;;;3.58;84.37;98114.25;105365;1291;22491;-85
2023/01/06 00:16:28;;;;;;;9.30;6.30;;;;;;;3.60;84.62;98117.89;104544;1307;22527;-89
2023/01/06 00:18:59;;;;;;;8.60;6.20;;;;;;;3.67;84.27;98125.48;103849;1305;22499;-85
2023/01/06 00:21:28;;;;;;;9.30;6.30;;;;;;;3.69;83.23;98127.96;103984;1305;22512;-89
2023/01/06 00:23:56;;;;;;;9.00;6.00;;;;;;;3.71;83.76;98127.83;103884;1299;23249;-84
2023/01/06 00:26:25;;;;;;;9.20;6.10;;;;;;;3.75;83.50;98122.34;103301;1306;22603;-87
2023/01/06 00:28:54;;;;;;;10.40;7.40;;;;;;;3.78;83.35;98125.88;103490;1307;22412;-88
2023/01/06 00:31:22;;;;;;;9.10;6.50;;;;;;;3.80;82.76;98131.55;103889;1307;24233;-86
2023/01/06 00:33:51;;;;;;;9.60;6.50;;;;;;;3.76;82.69;98129.86;103721;1307;22481;-88
2023/01/06 00:36:20;;;;;;;9.50;6.90;;;;;;;3.83;83.20;98139.92;103760;1307;22783;-85
2023/01/06 00:38:49;;;;;;;8.50;6.40;;;;;;;3.84;82.50;98148.84;103510;1307;25299;-83
2023/01/06 00:44:05;;;;;;;7.80;6.00;;;;;;;3.70;82.18;98155.73;103703;1307;22878;-89
2023/01/06 00:46:34;;;;;;;10.90;6.80;;;;;;;3.67;82.37;98154.31;103914;1301;22500;-90
2023/01/06 00:49:03;;;;;;;9.20;6.50;;;;;;;3.62;82.74;98155.86;104498;1305;22474;-91
2023/01/06 00:51:36;;;;;;;9.70;7.00;;;;;;;3.58;82.49;98158.86;104132;1309;22470;-88
2023/01/06 00:54:10;;;;;;;8.70;6.30;;;;;;;3.53;82.52;98159.20;104403;1313;22479;-91
2023/01/06 00:56:40;;;;;;;9.90;6.60;;;;;;;3.49;82.69;98160.05;104698;1307;22544;-93
2023/01/06 00:59:10;;;;;;;9.60;7.50;;;;;;;3.46;83.05;98165.41;104911;1306;22591;-89
2023/01/06 01:01:39;;;;;;;10.90;7.80;;;;;;;3.49;83.07;98165.38;104261;1307;23162;-91
2023/01/06 01:04:09;;;;;;;8.00;6.40;;;;;;;3.46;83.17;98168.00;103936;1308;22596;-90
2023/01/06 01:06:37;;;;;;;7.90;6.60;;;;;;;3.40;83.42;98171.51;104381;1307;22460;-92
2023/01/06 01:09:06;;;;;;;8.30;6.40;;;;;;;3.37;83.27;98173.91;104053;1310;22418;-87
2023/01/06 01:14:21;;;;;;;8.80;6.60;;;;;;;3.36;83.79;98181.04;104118;1307;22698;-89
2023/01/06 01:16:49;;;;;;;8.80;6.40;;;;;;;3.37;83.67;98200.76;104058;1308;22558;-91
2023/01/06 01:19:18;;;;;;;8.60;6.00;;;;;;;3.34;83.47;98205.73;104307;1307;24201;-89
2023/01/06 01:21:47;;;;;;;11.80;6.60;;;;;;;3.32;83.34;98209.30;104203;1307;25694;-91
2023/01/06 01:24:15;;;;;;;8.80;5.30;;;;;;;3.30;83.85;98214.14;104796;1313;25376;-91
2023/01/06 01:26:44;;;;;;;7.60;5.70;;;;;;;3.30;83.46;98222.66;105780;1307;21963;-89
2023/01/06 01:29:17;;;;;;;7.90;5.20;;;;;;;3.29;82.65;98229.41;106739;1307;22489;-87
2023/01/06 01:31:46;;;;;;;7.50;5.40;;;;;;;3.23;82.90;98217.54;105921;1307;22530;-85
2023/01/06 01:34:16;;;;;;;6.40;4.90;;;;;;;3.21;82.83;98212.60;104051;1307;23875;-88
2023/01/06 01:36:46;;;;;;;5.90;4.50;;;;;;;3.23;82.79;98213.48;103965;1310;25948;-87
2023/01/06 01:39:16;;;;;;;7.70;5.60;;;;;;;3.21;82.38;98217.61;104380;1307;24356;-87
2023/01/06 01:41:44;;;;;;;7.40;4.20;;;;;;;3.14;82.12;98213.10;104001;1303;22491;-86
2023/01/06 01:45:04;;;;;;;6.50;4.70;;;;;;;3.10;82.31;98215.09;103661;1310;22959;-88
2023/01/06 01:47:32;;;;;;;7.20;4.90;;;;;;;3.06;82.32;98205.89;103492;1313;24269;-90
2023/01/06 01:50:07;;;;;;;6.20;5.00;;;;;;;3.02;82.62;98216.30;103862;1304;26686;-89
2023/01/06 01:52:35;;;;;;;7.00;4.90;;;;;;;2.98;82.61;98218.95;103993;1296;23865;-88
2023/01/06 01:55:05;;;;;;;8.10;5.40;;;;;;;2.97;82.82;98215.95;103799;1288;23468;-86
2023/01/06 01:57:40;;;;;;;7.10;5.50;;;;;;;2.97;82.95;98216.86;103674;1307;23400;-88
2023/01/06 02:00:09;;;;;;;7.20;5.20;;;;;;;3.00;83.07;98222.35;103850;1310;23643;-89
2023/01/06 02:02:41;;;;;;;8.00;5.50;;;;;;;2.99;83.39;98220.56;103515;1307;22599;-82
2023/01/06 02:05:17;;;;;;;8.10;5.50;;;;;;;2.98;83.30;98221.35;103790;1308;22462;-84
2023/01/06 02:07:46;;;;;;;7.40;5.60;;;;;;;2.94;83.74;98221.44;103834;1307;25697;-83
2023/01/06 02:10:18;;;;;;;7.00;5.00;;;;;;;2.90;84.01;98223.30;103766;1302;22471;-84
2023/01/06 02:12:49;;;;;;;8.30;5.80;;;;;;;2.91;83.89;98228.37;103625;1307;22495;-82
2023/01/06 02:15:24;;;;;;;7.70;5.40;;;;;;;2.88;83.92;98232.04;103728;1291;22535;-82
2023/01/06 02:18:15;;;;;;;9.10;5.60;;;;;;;2.85;84.12;98238.61;103693;1310;24327;-84
2023/01/06 02:20:43;;;;;;;9.80;5.10;;;;;;;2.81;84.37;98243.01;103798;1307;22484;-83
2023/01/06 02:23:35;;;;;;;6.70;4.60;;;;;;;2.81;84.55;98247.25;103695;1307;22468;-83
2023/01/06 02:26:35;;;;;;;6.60;4.40;;;;;;;2.77;84.25;98253.58;103598;1306;22472;-83
2023/01/06 02:29:42;;;;;;;7.10;4.80;;;;;;;2.72;84.38;98259.45;103735;1304;22464;-83
2023/01/06 02:32:25;;;;;;;5.30;4.70;;;;;;;2.70;84.07;98259.46;103716;1285;22466;-84
2023/01/06 02:35:22;;;;;;;7.60;5.20;;;;;;;2.67;84.22;98264.73;103692;1307;22482;-83
2023/01/06 02:38:09;;;;;;;6.80;4.80;;;;;;;2.67;84.53;98265.16;103717;1310;24281;-83
2023/01/06 02:41:00;;;;;;;8.50;5.20;;;;;;;2.63;84.58;98269.83;103865;1311;22485;-82
2023/01/06 02:43:45;;;;;;;7.70;5.20;;;;;;;2.63;84.33;98265.02;103736;1307;22595;-84
2023/01/06 02:46:36;;;;;;;7.90;6.00;;;;;;;2.65;84.62;98274.27;103771;1297;22862;-84
2023/01/06 02:49:14;;;;;;;6.90;5.20;;;;;;;2.61;84.79;98272.70;103693;1307;24349;-85
2023/01/06 02:52:06;;;;;;;6.50;5.10;;;;;;;2.59;84.83;98278.89;103788;1307;22747;-84
2023/01/06 02:55:04;;;;;;;7.30;5.00;;;;;;;2.57;85.15;98278.65;103987;1307;24402;-85
2023/01/06 02:58:12;;;;;;;7.10;6.40;;;;;;;2.57;85.28;98281.31;103732;1307;22483;-85
2023/01/06 03:00:47;;;;;;;7.10;5.70;;;;;;;2.54;85.11;98283.97;103609;1313;22474;-84
2023/01/06 03:03:21;;;;;;;7.30;5.80;;;;;;;2.54;84.80;98280.77;103729;1307;22548;-85
2023/01/06 03:05:56;;;;;;;12.80;6.20;;;;;;;2.53;85.38;98281.89;103787;1307;22450;-85
2023/01/06 03:08:29;;;;;;;7.00;5.10;;;;;;;2.56;85.41;98282.36;103876;1307;22476;-86
2023/01/06 03:11:00;;;;;;;8.20;5.00;;;;;;;2.60;85.30;98281.09;103991;1283;22520;-85
2023/01/06 03:13:29;;;;;;;8.30;6.20;;;;;;;2.62;85.83;98278.16;103806;1307;22519;-85
2023/01/06 03:15:59;;;;;;;9.40;5.90;;;;;;;2.58;86.02;98278.95;103801;1307;22588;-85
2023/01/06 03:18:29;;;;;;;8.40;5.90;;;;;;;2.55;86.00;98273.45;103857;1307;23266;-84
2023/01/06 03:21:02;;;;;;;7.00;5.20;;;;;;;2.55;86.01;98277.59;103701;1303;22470;-84
2023/01/06 03:23:32;;;;;;;6.80;5.60;;;;;;;2.51;85.93;98274.12;103804;1307;24298;-85
2023/01/06 03:26:03;;;;;;;7.60;5.50;;;;;;;2.51;86.11;98269.66;103731;1284;22473;-84
2023/01/06 03:28:31;;;;;;;9.20;6.10;;;;;;;2.50;86.25;98277.40;103919;1307;25217;-83
2023/01/06 03:31:06;;;;;;;8.00;5.60;;;;;;;2.47;86.17;98276.31;103786;1296;25418;-83
2023/01/06 03:33:48;;;;;;;7.00;5.80;;;;;;;2.46;86.23;98278.77;103843;1307;22469;-84
2023/01/06 03:36:25;;;;;;;9.20;6.50;;;;;;;2.48;86.22;98282.15;103791;1307;22430;-84
2023/01/06 03:39:10;;;;;;;8.80;6.10;;;;;;;2.49;86.48;98277.88;104017;1300;22684;-85
2023/01/06 03:45:05;;;;;;;7.80;6.00;;;;;;;2.48;86.44;98283.64;103953;1307;22467;-84
2023/01/06 03:48:01;;;;;;;8.20;5.80;;;;;;;2.49;86.96;98279.77;103713;1309;22471;-85
2023/01/06 03:50:35;;;;;;;7.90;5.50;;;;;;;2.53;86.69;98284.68;103784;1299;22459;-85
2023/01/06 03:53:21;;;;;;;9.90;7.10;;;;;;;2.54;87.00;98286.36;103823;1307;23736;-84
2023/01/06 03:56:00;;;;;;;10.50;7.50;;;;;;;2.50;86.75;98277.40;103715;1306;23217;-83
2023/01/06 03:58:29;;;;;;;8.80;6.00;;;;;;;2.48;87.51;98285.09;103856;1307;22475;-85
2023/01/06 04:00:58;;;;;;;7.00;5.20;;;;;;;2.48;87.64;98286.30;103494;1307;22518;-83
2023/01/06 04:03:27;;;;;;;10.70;5.90;;;;;;;2.47;87.50;98281.72;103742;1307;22473;-84
2023/01/06 04:05:55;;;;;;;9.70;7.10;;;;;;;2.46;87.62;98285.52;103692;1305;22467;-84
2023/01/06 04:08:26;;;;;;;12.00;7.30;;;;;;;2.45;87.56;98286.93;103720;1307;23697;-84
2023/01/06 04:10:55;;;;;;;12.50;6.60;;;;;;;2.43;87.56;98291.19;103761;1307;23914;-84
2023/01/06 04:13:23;;;;;;;8.40;6.20;;;;;;;2.42;87.39;98289.15;103711;1307;22465;-83
2023/01/06 04:15:54;;;;;;;7.50;5.30;;;;;;;2.43;88.00;98287.95;103948;1307;25224;-84
2023/01/06 04:19:17;;;;;;;9.00;5.90;;;;;;;2.42;88.15;98291.23;103914;1284;25359;-83
2023/01/06 04:21:46;;;;;;;8.60;5.60;;;;;;;2.38;88.16;98291.05;103954;1305;25301;-84
2023/01/06 04:24:14;;;;;;;7.20;5.40;;;;;;;2.35;88.06;98296.08;103769;1307;22969;-85
2023/01/06 04:26:42;;;;;;;8.10;5.80;;;;;;;2.36;87.86;98296.16;103782;1307;25300;-84
2023/01/06 04:29:11;;;;;;;11.80;6.80;;;;;;;2.37;88.09;98302.80;103621;1307;22604;-84
2023/01/06 04:31:39;;;;;;;8.50;6.20;;;;;;;2.40;88.33;98306.73;103736;1307;24267;-84
2023/01/06 04:34:07;;;;;;;8.20;6.10;;;;;;;2.39;88.62;98313.47;103849;1307;22585;-84
2023/01/06 04:36:35;;;;;;;8.60;5.80;;;;;;;2.37;88.39;98317.30;103671;1306;25299;-84
2023/01/06 04:39:03;;;;;;;8.50;5.40;;;;;;;2.35;88.26;98309.59;103723;1307;22636;-84
2023/01/06 04:41:31;;;;;;;6.90;5.10;;;;;;;2.37;88.08;98310.16;103897;1306;24452;-84
2023/01/06 04:43:59;;;;;;;8.20;5.90;;;;;;;2.40;88.56;98315.98;103947;1307;23393;-84
2023/01/06 04:46:27;;;;;;;7.40;5.50;;;;;;;2.41;88.39;98324.23;103959;1307;23353;-85
2023/01/06 04:48:55;;;;;;;7.60;6.00;;;;;;;2.40;88.47;98325.66;103839;1305;22524;-84
2023/01/06 04:51:23;;;;;;;10.80;6.00;;;;;;;2.39;88.28;98327.97;103876;1306;25367;-84
2023/01/06 04:53:51;;;;;;;10.70;6.80;;;;;;;2.37;88.56;98324.27;103702;1307;24189;-84
2023/01/06 04:56:19;;;;;;;9.40;8.00;;;;;;;2.38;88.88;98324.09;103875;1307;22472;-85
2023/01/06 04:58:47;;;;;;;11.50;7.60;;;;;;;2.40;88.80;98321.23;103790;1284;22505;-85
2023/01/06 05:01:15;;;;;;;10.70;7.30;;;;;;;2.39;89.08;98329.80;103754;1307;22478;-85
2023/01/06 05:03:43;;;;;;;9.20;6.50;;;;;;;2.37;88.74;98323.09;103938;1307;22473;-85
2023/01/06 05:06:12;;;;;;;12.00;6.50;;;;;;;2.34;88.49;98327.77;103881;1301;22476;-84
2023/01/06 05:08:42;;;;;;;7.80;6.00;;;;;;;2.34;88.78;98327.23;103972;1302;22529;-85
2023/01/06 05:11:16;;;;;;;8.40;6.60;;;;;;;2.34;88.96;98331.61;103738;1307;22489;-83
2023/01/06 05:13:45;;;;;;;;;;;;;;;2.36;88.83;98333.88;103979;1303;22552;-83
2023/01/06 05:16:19;;;;;;;9.70;6.80;;;;;;;2.33;88.90;98333.16;104005;1307;26690;-84
2023/01/06 05:18:47;;;;;;;8.90;7.20;;;;;;;2.28;88.96;98340.33;103752;1307;22455;-83
2023/01/06 05:21:16;;;;;;;8.30;6.70;;;;;;;2.29;89.15;98336.86;103779;1307;22470;-83
2023/01/06 05:23:44;;;;;;;9.50;7.60;;;;;;;2.32;89.25;98334.85;103959;1307;23886;-85
2023/01/06 05:26:19;;;;;;;11.90;8.50;;;;;;;2.30;89.10;98339.56;103775;1302;22457;-83
2023/01/06 05:28:47;;;;;;;;;;;;;;;2.27;89.28;98343.00;104353;1307;24398;-85
2023/01/06 05:31:15;;;;;;;13.90;11.00;;;;;;;2.25;89.07;98338.50;104252;1307;22729;-85
2023/01/06 05:33:44;;;;;;;14.50;10.50;;;;;;;2.24;89.16;98339.13;103775;1307;23193;-85
2023/01/06 05:36:15;;;;;;;15.40;10.20;;;;;;;2.26;89.49;98337.70;103904;1304;22605;-85
2023/01/06 05:38:44;;;;;;;15.00;11.40;;;;;;;2.22;89.41;98337.90;103949;1307;22637;-85
2023/01/06 05:41:12;;;;;;;14.50;10.70;;;;;;;2.16;89.26;98343.23;104714;1270;22495;-84
2023/01/06 05:43:40;;;;;;;12.10;9.60;;;;;;;2.10;89.30;98350.04;103856;1307;25446;-86
2023/01/06 05:46:10;;;;;;;12.70;10.40;;;;;;;2.06;89.54;98356.69;103778;1307;22744;-86
2023/01/06 05:48:39;;;;;;;13.10;10.90;;;;;;;2.04;89.60;98355.21;103686;1306;25099;-85
2023/01/06 05:51:10;;;;;;;13.50;11.40;;;;;;;1.99;89.41;98359.83;103667;1294;22490;-84
2023/01/06 05:53:40;;;;;;;12.90;11.10;;;;;;;1.95;89.33;98361.02;103770;1307;22585;-85
2023/01/06 05:56:11;;;;;;;13.90;11.30;;;;;;;1.88;89.68;98357.94;103636;1303;22485;-84
2023/01/06 05:58:44;;;;;;;14.90;13.20;;;;;;;1.83;89.59;98362.11;103693;1305;25330;-85
2023/01/06 06:01:16;;;;;;;13.30;11.90;;;;;;;1.80;89.46;98359.84;103744;1307;22619;-85
2023/01/06 06:03:44;;;;;;;12.50;11.30;;;;;;;1.80;89.78;98365.42;103939;1306;22737;-84
2023/01/06 06:06:13;;;;;;;12.50;10.40;;;;;;;1.78;90.05;98359.30;103913;1306;26623;-84
2023/01/06 06:08:41;;;;;;;12.20;11.00;;;;;;;1.73;90.11;98361.27;103714;1285;26723;-84
2023/01/06 06:11:12;;;;;;;12.60;11.30;;;;;;;1.68;90.27;98361.26;103864;1282;23361;-85
2023/01/06 06:13:55;;;;;;;12.10;10.90;;;;;;;1.66;90.50;98361.98;103954;1292;22466;-84
2023/01/06 06:16:26;;;;;;;14.10;11.40;;;;;;;1.64;90.49;98363.04;103895;1305;22648;-84
2023/01/06 06:18:56;;;;;;;14.60;13.10;;;;;;;1.64;90.46;98363.73;103767;1301;22497;-84
2023/01/06 06:21:27;;;;;;;14.60;13.10;;;;;;;1.62;90.33;98366.95;104032;1307;24320;-83
2023/01/06 06:23:57;;;;;;;15.50;13.70;;;;;;;1.61;90.45;98373.68;103725;1298;22669;-84
2023/01/06 06:26:25;;;;;;;17.10;15.50;;;;;;;1.57;90.63;98373.54;103762;1285;26513;-84
2023/01/06 06:28:56;;;;;;;15.80;14.10;;;;;;;1.57;90.60;98372.48;103854;1305;23094;-84
2023/01/06 06:31:28;;;;;;;15.50;14.00;;;;;;;1.59;90.56;98367.89;104309;1307;24352;-91
2023/01/06 06:33:58;;;;;;;15.70;13.70;;;;;;;1.62;90.43;98366.46;105410;1301;22467;-93
2023/01/06 06:36:27;;;;;;;15.30;13.50;;;;;;;1.67;90.65;98365.95;105429;1298;22305;-91
2023/01/06 06:38:56;;;;;;;14.90;11.10;;;;;;;1.70;90.64;98369.86;104948;1291;25266;-90
2023/01/06 06:41:27;;;;;;;16.20;10.10;;;;;;;1.66;91.13;98361.05;105246;1306;22718;-91
2023/01/06 06:43:55;;;;;;;14.00;10.50;;;;;;;1.69;90.98;98370.48;106472;1307;23748;-90
2023/01/06 06:46:23;;;;;;;13.80;11.10;;;;;;;1.69;90.98;98374.81;105499;1307;22480;-92
2023/01/06 06:48:51;;;;;;;15.10;10.80;;;;;;;1.71;91.00;98380.30;105484;1304;22414;-92
2023/01/06 06:51:21;;;;;;;12.30;11.00;;;;;;;1.75;91.15;98385.33;105402;1301;22495;-91
2023/01/06 06:53:50;;;;;;;12.30;10.70;;;;;;;1.77;91.28;98391.85;106326;1307;22761;-92
2023/01/06 06:56:19;;;;;;;17.30;13.50;;;;;;;1.74;91.34;98392.75;105926;1304;22949;-91
2023/01/06 06:58:47;;;;;;;15.30;13.80;;;;;;;1.74;91.40;98398.97;105369;1288;22568;-92
2023/01/06 07:01:19;;;;;;;13.50;12.30;;;;;;;1.77;91.19;98401.79;104119;1307;22512;-88
2023/01/06 07:03:49;;;;;;;12.70;11.10;;;;;;;1.82;90.98;98400.31;105350;1300;22428;-93
2023/01/06 07:06:20;;;;;;;11.70;10.60;;;;;;;1.86;91.16;98400.95;104775;1307;22483;-91
2023/01/06 07:08:49;;;;;;;13.50;11.60;;;;;;;1.87;91.51;98407.06;104553;1307;24255;-91
2023/01/06 07:11:17;;;;;;;14.90;13.10;;;;;;;1.85;91.14;98409.27;105052;1307;23310;-91
2023/01/06 07:13:46;;;;;;;14.10;12.40;;;;;;;1.84;91.34;98415.45;105003;1307;22615;-89
2023/01/06 07:16:15;;;;;;;12.90;11.50;;;;;;;1.84;91.41;98415.66;104092;1305;22469;-88
2023/01/06 07:18:44;;;;;;;13.30;11.90;;;;;;;1.80;91.54;98409.61;105559;1307;25383;-88
2023/01/06 07:21:12;;;;;;;14.00;12.50;;;;;;;1.85;91.50;98420.95;104246;1307;24214;-89
2023/01/06 07:27:57;;;;;;;18.30;16.50;;;;;;;1.86;91.44;98427.15;103978;1292;25382;-88
2023/01/06 07:30:27;;;;;;;15.80;14.20;;;;;;;1.86;91.19;98430.92;103851;1307;22504;-89
2023/01/06 07:32:55;;;;;;;16.50;14.10;;;;;;;1.84;91.18;98422.35;104003;1306;22604;-90
2023/01/06 07:35:54;;;;;;;16.40;14.80;;;;;;;1.90;91.55;98425.69;103979;1307;278216;-90
2023/01/06 07:38:23;;;;;;;15.30;13.80;;;;;;;1.94;91.25;98422.05;104176;1307;24272;-90
2023/01/06 07:40:51;;;;;;;16.30;14.70;;;;;;;1.98;91.47;98427.43;104089;1307;22479;-88
2023/01/06 07:43:19;;;;;;;18.20;16.40;;;;;;;1.99;91.16;98428.51;103853;1307;25288;-88
2023/01/06 07:45:48;;;;;;;18.40;16.70;;;;;;;2.00;91.26;98431.79;103636;1307;25398;-88
2023/01/06 07:48:16;;;;;;;18.80;16.10;;;;;;;2.02;91.33;98434.00;103764;1301;22611;-88
2023/01/06 07:50:44;;;;;;;20.70;18.30;;;;;;;2.02;91.32;98439.59;103770;1298;22529;-88
2023/01/06 07:53:12;;;;;;;24.10;21.80;;;;;;;2.03;91.43;98440.04;103884;1297;22854;-89
2023/01/06 07:55:40;;;;;;;26.50;23.90;;;;;;;1.99;91.37;98448.43;103854;1307;22498;-87
2023/01/06 07:58:09;;;;;;;22.70;20.40;;;;;;;1.95;91.15;98450.69;103692;1307;22527;-91
2023/01/06 08:00:37;;;;;;;21.60;19.40;;;;;;;1.94;91.07;98455.19;103789;1307;22497;-90
2023/01/06 08:03:07;;;;;;;27.80;25.00;;;;;;;1.95;91.44;98467.39;103859;1304;22517;-88
2023/01/06 08:05:42;;;;;;;30.20;27.20;;;;;;;1.96;91.40;98460.91;104216;1305;22427;-89
2023/01/06 08:08:11;;;;;;;29.70;26.90;;;;;;;1.97;91.53;98465.36;104223;1301;22549;-88
2023/01/06 08:10:41;;;;;;;22.60;20.50;;;;;;;2.01;91.58;98472.83;104324;1307;24378;-88
2023/01/06 08:13:10;;;;;;;22.00;19.90;;;;;;;2.04;91.43;98471.86;104023;1307;22562;-89
2023/01/06 08:15:38;;;;;;;22.00;19.80;;;;;;;2.11;91.53;98467.23;103936;1307;22500;-89
2023/01/06 08:18:07;;;;;;;25.50;22.90;;;;;;;2.17;91.21;98461.38;103879;1306;22485;-88
2023/01/06 08:20:35;;;;;;;20.00;17.90;;;;;;;2.20;91.55;98464.61;104027;1307;22579;-89
2023/01/06 08:23:03;;;;;;;22.20;19.90;;;;;;;2.19;91.36;98469.22;104245;1300;22636;-90
2023/01/06 08:25:31;;;;;;;19.20;17.20;;;;;;;2.16;91.33;98470.75;104096;1307;22558;-89
2023/01/06 08:27:59;;;;;;;18.50;16.20;;;;;;;2.18;91.23;98470.47;104412;1307;22605;-88
2023/01/06 08:30:28;;;;;;;20.10;18.00;;;;;;;2.19;91.24;98469.60;104156;1297;22601;-90
2023/01/06 08:32:57;;;;;;;18.50;16.40;;;;;;;2.16;91.07;98469.80;104045;1305;25396;-90
2023/01/06 08:35:26;;;;;;;19.70;17.80;;;;;;;2.14;91.25;98468.85;104034;1305;22465;-88
2023/01/06 08:37:54;;;;;;;18.40;16.50;;;;;;;2.15;90.82;98471.91;104289;1306;22448;-88
2023/01/06 08:40:22;;;;;;;18.60;16.70;;;;;;;2.16;91.04;98472.66;105799;1291;25574;-89
2023/01/06 08:42:52;;;;;;;14.30;12.80;;;;;;;2.22;90.93;98476.36;106820;1304;23054;-88
2023/01/06 08:45:20;;;;;;;21.30;19.10;;;;;;;2.23;90.96;98475.00;106676;1305;22517;-89
2023/01/06 08:47:48;;;;;;;20.50;18.50;;;;;;;2.24;90.97;98476.79;106779;1298;22471;-90
2023/01/06 08:50:16;;;;;;;16.10;14.40;;;;;;;2.28;90.62;98476.27;106641;1307;22487;-87
2023/01/06 08:52:44;;;;;;;19.60;17.50;;;;;;;2.32;90.61;98476.21;106812;1307;22499;-87
2023/01/06 08:55:12;;;;;;;18.00;16.10;;;;;;;2.35;90.89;98472.84;106940;1290;22454;-90
2023/01/06 08:57:40;;;;;;;21.20;19.10;;;;;;;2.39;90.54;98472.98;107105;1291;22999;-89
2023/01/06 09:03:57;;;;;;;15.40;13.90;;;;;;;2.53;90.86;98468.66;105129;1307;22492;-89
2023/01/06 09:06:26;;;;;;;14.10;12.80;;;;;;;2.62;90.45;98474.61;105606;1301;22551;-88
2023/01/06 09:08:55;;;;;;;14.90;13.30;;;;;;;2.66;90.30;98472.36;105950;1306;22459;-88
2023/01/06 09:11:24;;;;;;;15.70;14.10;;;;;;;2.65;89.76;98467.23;105255;1307;25624;-88
2023/01/06 09:13:53;;;;;;;14.90;13.30;;;;;;;2.61;89.72;98469.27;105364;1306;22518;-89
2023/01/06 09:16:21;;;;;;;13.90;12.40;;;;;;;2.59;89.85;98465.82;105394;1300;22485;-88
2023/01/06 09:18:49;;;;;;;12.70;11.50;;;;;;;2.59;89.31;98457.30;105271;1302;22708;-88
2023/01/06 09:21:20;;;;;;;15.10;12.50;;;;;;;2.63;89.80;98452.11;105458;1307;22496;-89
2023/01/06 09:23:48;;;;;;;16.30;14.80;;;;;;;2.70;89.95;98449.92;105742;1307;22511;-88
2023/01/06 09:26:18;;;;;;;17.50;15.30;;;;;;;2.78;90.18;98445.40;105655;1306;23275;-87
2023/01/06 09:28:46;;;;;;;15.70;14.20;;;;;;;2.86;89.92;98444.51;105039;1305;22375;-90
2023/01/06 09:31:16;;;;;;;14.70;13.30;;;;;;;2.91;89.40;98444.40;105390;1307;22497;-88
2023/01/06 09:33:45;;;;;;;12.00;10.70;;;;;;;2.96;89.93;98443.54;104503;1307;22959;-86
2023/01/06 09:36:13;;;;;;;12.50;11.20;;;;;;;3.04;89.95;98439.39;104007;1307;22580;-88
2023/01/06 09:38:41;;;;;;;11.40;10.20;;;;;;;3.14;89.98;98439.92;104219;1306;24298;-88
2023/01/06 09:41:21;;;;;;;11.60;10.40;;;;;;;3.23;89.13;98438.84;104012;1300;22476;-88
2023/01/06 09:44:10;;;;;;;18.50;16.80;;;;;;;3.24;88.87;98440.58;104328;1307;22535;-88
2023/01/06 09:46:42;;;;;;;13.30;12.00;;;;;;;3.19;88.69;98428.34;104364;1307;22686;-89
2023/01/06 09:49:24;;;;;;;23.10;20.80;;;;;;;3.17;87.08;98421.63;104223;1304;22483;-87
2023/01/06 09:51:57;;;;;;;34.00;28.60;;;;;;;3.12;87.46;98425.13;104230;1304;26511;-87
2023/01/06 09:54:33;;;;;;;25.10;20.50;;;;;;;3.08;86.50;98427.27;103830;1301;25327;-89
2023/01/06 09:57:05;;;;;;;16.60;14.90;;;;;;;3.07;86.40;98426.34;104137;1307;22478;-89
2023/01/06 09:59:46;;;;;;;34.80;31.00;;;;;;;3.06;86.89;98422.18;103762;1307;22498;-89
2023/01/06 10:02:38;;;;;;;21.70;19.60;;;;;;;3.08;87.07;98414.48;104338;1304;22531;-88
2023/01/06 10:05:29;;;;;;;19.50;17.80;;;;;;;3.09;86.43;98412.70;104057;1307;25267;-89
2023/01/06 10:08:10;;;;;;;9.10;8.20;;;;;;;3.09;86.20;98405.62;103944;1307;26634;-88
2023/01/06 10:10:58;;;;;;;10.60;8.50;;;;;;;3.11;86.25;98401.17;104379;1307;22590;-88
2023/01/06 10:13:52;;;;;;;9.50;8.60;;;;;;;3.15;86.38;98394.71;104261;1307;23074;-87
2023/01/06 10:16:33;;;;;;;10.10;8.10;;;;;;;3.23;85.83;98383.19;105185;1307;22513;-89
2023/01/06 10:19:25;;;;;;;10.50;9.40;;;;;;;3.22;86.15;98376.94;104741;1307;22593;-89
2023/01/06 10:22:03;;;;;;;9.90;8.90;;;;;;;3.29;86.40;98383.83;104732;1301;22479;-88
2023/01/06 10:24:45;;;;;;;9.60;8.10;;;;;;;3.38;86.99;98377.98;103892;1307;24258;-89
2023/01/06 10:27:16;;;;;;;9.50;8.30;;;;;;;3.44;86.59;98374.69;103892;1307;22547;-89
2023/01/06 10:29:47;;;;;;;10.40;9.00;;;;;;;3.47;86.68;98372.09;104312;1305;22514;-89
2023/01/06 10:32:16;;;;;;;10.60;9.50;;;;;;;3.53;86.93;98365.05;105578;1281;22502;-90
2023/01/06 10:34:47;;;;;;;11.20;10.00;;;;;;;3.60;86.09;98362.17;105067;1309;22563;-88
2023/01/06 10:37:31;;;;;;;14.30;12.90;;;;;;;3.61;85.52;98361.56;105667;1307;22507;-89
2023/01/06 10:40:11;;;;;;;17.40;15.80;;;;;;;3.60;85.46;98351.91;105538;1300;22432;-90
2023/01/06 10:42:54;;;;;;;15.80;14.30;;;;;;;3.59;85.04;98345.71;104269;1307;22474;-86
2023/01/06 10:45:37;;;;;;;16.30;14.80;;;;;;;3.59;85.64;98340.49;104543;1307;24256;-89
2023/01/06 10:48:18;;;;;;;14.30;12.90;;;;;;;3.59;85.09;98343.42;104631;1293;22482;-86
2023/01/06 10:50:46;;;;;;;12.30;11.10;;;;;;;3.56;84.22;98343.36;104416;1294;24109;-83
2023/01/06 10:53:15;;;;;;;12.60;11.40;;;;;;;3.52;84.02;98343.19;103972;1294;22504;-85
2023/01/06 10:55:57;;;;;;;14.70;13.20;;;;;;;3.54;84.25;98341.50;104969;1309;22479;-86
2023/01/06 10:58:41;;;;;;;11.30;10.20;;;;;;;3.51;84.52;98340.41;104184;1297;22584;-85
2023/01/06 11:01:15;;;;;;;15.70;14.10;;;;;;;3.49;84.40;98337.60;104805;1307;22932;-89
2023/01/06 11:03:44;;;;;;;15.10;13.70;;;;;;;3.49;84.09;98337.59;104198;1308;22474;-86
2023/01/06 11:06:29;;;;;;;14.50;13.00;;;;;;;3.48;83.66;98334.08;103774;1308;22588;-86
2023/01/06 11:08:57;;;;;;;13.90;12.40;;;;;;;3.50;84.10;98336.17;103750;1307;22425;-87
2023/01/06 11:11:25;;;;;;;14.40;13.00;;;;;;;3.53;83.94;98338.02;104114;1302;23891;-89
2023/01/06 11:14:00;;;;;;;13.30;12.00;;;;;;;3.56;83.92;98333.54;104200;1309;25380;-88
2023/01/06 11:16:32;;;;;;;13.50;12.10;;;;;;;3.57;83.68;98337.95;104463;1307;22482;-87
2023/01/06 11:19:04;;;;;;;15.20;13.60;;;;;;;3.56;83.75;98339.46;105128;1309;22701;-89
2023/01/06 11:21:45;;;;;;;14.00;12.70;;;;;;;3.56;83.25;98330.89;104351;1296;22507;-86
2023/01/06 11:24:22;;;;;;;18.20;16.40;;;;;;;3.59;83.48;98319.32;104059;1299;24343;-86
2023/01/06 11:27:21;;;;;;;13.30;12.00;;;;;;;3.72;84.58;98314.35;104330;1307;22486;-87
2023/01/06 11:29:49;;;;;;;9.90;8.80;;;;;;;3.89;84.55;98310.69;104119;1310;22750;-86
2023/01/06 11:32:26;;;;;;;7.90;7.10;;;;;;;3.99;84.46;98318.09;103994;1309;22459;-87
2023/01/06 11:35:04;;;;;;;8.20;7.10;;;;;;;4.10;84.47;98328.92;103895;1304;22946;-86
2023/01/06 11:37:34;;;;;;;8.10;7.30;;;;;;;4.15;84.41;98339.34;103738;1294;22442;-86
2023/01/06 11:40:32;;;;;;;8.70;7.70;;;;;;;4.16;84.03;98343.93;103961;1310;22475;-87
2023/01/06 11:43:09;;;;;;;14.50;8.50;;;;;;;4.13;83.34;98338.48;104878;1309;22492;-92
2023/01/06 11:45:58;;;;;;;10.90;9.20;;;;;;;4.08;83.04;98340.05;103839;1303;22468;-89
2023/01/06 11:48:45;;;;;;;13.50;10.30;;;;;;;4.03;83.07;98335.59;104959;1309;22557;-90
2023/01/06 11:51:14;;;;;;;15.40;13.70;;;;;;;4.06;83.13;98338.30;104927;1309;22933;-89
2023/01/06 11:53:56;;;;;;;42.90;38.70;;;;;;;4.14;83.36;98335.20;104727;1306;25276;-91
2023/01/06 11:56:25;;;;;;;19.80;17.90;;;;;;;4.23;83.31;98330.15;105362;1309;25850;-91
2023/01/06 11:59:11;;;;;;;18.00;15.20;;;;;;;4.32;83.10;98327.02;106334;1310;22039;-92
2023/01/06 12:01:51;;;;;;;20.90;18.80;;;;;;;4.52;83.23;98319.95;106548;1310;25251;-91
2023/01/06 12:04:49;;;;;;;15.30;13.90;;;;;;;4.79;83.20;98310.20;106419;1306;22253;-91
2023/01/06 12:07:27;;;;;;;12.70;11.40;;;;;;;5.19;83.31;98302.98;105752;1309;22694;-92
2023/01/06 12:10:02;;;;;;;25.00;22.70;;;;;;;6.13;83.72;98298.52;105773;1309;22483;-90